Time;durP1;ratioP1;P1;durP2;ratioP2;P2;SDS_P1;SDS_P2;PMS_P1;PMS_P2;Temp;Humidity;BMP_temperature;BMP_pressure;BME280_temperature;BME280_humidity;BME280_pressure;Samples;Min_cycle;Max_cycle;Signal;HPM_P1;HPM_P2
2021/12/31 00:01:29;;;;;;;1.30;0.55;;;31.50;37.80;;;;;;5037447;28;20033;-55
2021/12/31 00:03:57;;;;;;;1.95;0.60;;;31.70;37.60;;;;;;5038863;28;20811;-57
2021/12/31 00:06:24;;;;;;;0.85;0.20;;;31.80;37.30;;;;;;5038328;28;20039;-62
2021/12/31 00:08:51;;;;;;;0.77;0.68;;;32.00;37.20;;;;;;5041668;28;20153;-63
2021/12/31 00:11:18;;;;;;;0.57;0.30;;;32.00;36.90;;;;;;5042979;28;20409;-66
2021/12/31 00:13:46;;;;;;;1.25;0.30;;;32.20;36.80;;;;;;5041336;28;20049;-65
2021/12/31 00:16:13;;;;;;;1.17;0.30;;;32.30;36.60;;;;;;5037828;28;20029;-59
2021/12/31 00:18:40;;;;;;;0.30;0.20;;;32.40;36.40;;;;;;5039861;28;20041;-63
2021/12/31 00:21:07;;;;;;;0.60;0.30;;;32.50;36.20;;;;;;5039674;28;20041;-63
2021/12/31 00:23:34;;;;;;;0.85;0.55;;;32.60;36.10;;;;;;5034553;28;20044;-61
2021/12/31 00:26:01;;;;;;;1.02;0.75;;;32.60;36.40;;;;;;5036651;28;20043;-63
2021/12/31 00:28:28;;;;;;;4.20;0.40;;;32.70;35.70;;;;;;5040834;28;20067;-61
2021/12/31 00:30:57;;;;;;;0.85;0.70;;;32.50;35.50;;;;;;5040807;28;20045;-61
2021/12/31 00:33:25;;;;;;;4.13;0.50;;;32.30;35.60;;;;;;5042132;28;20052;-60
2021/12/31 00:35:52;;;;;;;1.52;0.30;;;32.00;35.70;;;;;;5036983;28;20120;-59
2021/12/31 00:38:20;;;;;;;3.28;0.35;;;31.70;36.00;;;;;;5039577;28;20041;-60
2021/12/31 00:40:47;;;;;;;1.20;0.20;;;31.40;36.40;;;;;;5039040;28;20037;-59
2021/12/31 00:43:14;;;;;;;2.97;0.50;;;31.10;36.90;;;;;;5040409;28;20029;-59
2021/12/31 00:45:43;;;;;;;1.27;0.57;;;30.70;37.20;;;;;;5040038;28;20525;-59
2021/12/31 00:48:13;;;;;;;1.25;0.73;;;30.40;37.70;;;;;;5043023;28;20040;-60
2021/12/31 00:50:41;;;;;;;1.08;0.45;;;30.00;38.10;;;;;;5039085;28;20458;-60
2021/12/31 00:53:08;;;;;;;2.00;0.20;;;29.70;38.50;;;;;;5038140;28;20037;-60
2021/12/31 00:55:35;;;;;;;1.02;0.50;;;29.50;39.00;;;;;;5036871;28;20048;-60
2021/12/31 00:58:03;;;;;;;1.50;0.43;;;29.10;39.40;;;;;;5035398;28;20045;-60
2021/12/31 01:00:31;;;;;;;0.88;0.20;;;28.90;39.70;;;;;;5040128;28;20128;-59
2021/12/31 01:02:57;;;;;;;1.70;0.45;;;28.60;40.10;;;;;;5039293;28;20084;-57
2021/12/31 01:05:26;;;;;;;0.95;0.25;;;28.30;40.50;;;;;;5034186;28;20459;-57
2021/12/31 01:07:53;;;;;;;1.85;0.95;;;28.10;40.90;;;;;;5039178;28;20075;-60
2021/12/31 01:10:23;;;;;;;1.25;0.20;;;27.90;41.30;;;;;;5036272;28;20056;-60
2021/12/31 01:12:51;;;;;;;2.92;0.30;;;27.70;41.60;;;;;;5039762;28;20147;-61
2021/12/31 01:15:22;;;;;;;1.98;0.30;;;27.50;42.00;;;;;;5037421;28;20107;-63
2021/12/31 01:20:32;;;;;;;0.88;0.50;;;27.10;42.90;;;;;;5034965;28;20045;-61
2021/12/31 01:22:59;;;;;;;2.00;0.20;;;27.10;43.50;;;;;;5037685;28;20033;-60
2021/12/31 01:25:26;;;;;;;1.13;0.43;;;27.10;43.70;;;;;;5036406;28;20037;-60
2021/12/31 01:27:53;;;;;;;0.82;0.13;;;27.20;43.70;;;;;;5041495;28;20156;-56
2021/12/31 01:30:21;;;;;;;0.90;0.20;;;27.40;43.50;;;;;;5039016;28;20045;-56
2021/12/31 01:32:48;;;;;;;0.45;0.10;;;27.60;43.20;;;;;;5040746;28;20064;-56
2021/12/31 01:35:16;;;;;;;1.40;0.50;;;28.00;42.90;;;;;;5036374;28;20037;-72
2021/12/31 01:37:45;;;;;;;1.77;0.25;;;28.30;42.40;;;;;;5038676;28;20044;-64
2021/12/31 01:40:13;;;;;;;1.48;0.30;;;28.60;41.80;;;;;;5039996;28;20520;-61
2021/12/31 01:42:40;;;;;;;0.50;0.45;;;29.00;41.30;;;;;;5038217;28;20048;-63
2021/12/31 01:45:13;;;;;;;0.40;0.20;;;29.20;41.40;;;;;;5034909;28;20543;-56
2021/12/31 01:47:56;;;;;;;0.77;0.20;;;29.50;40.30;;;;;;5037675;28;20417;-63
2021/12/31 01:50:24;;;;;;;2.05;0.30;;;29.80;39.80;;;;;;5036813;28;20053;-62
2021/12/31 01:52:53;;;;;;;1.27;0.40;;;30.10;39.40;;;;;;5036784;28;20041;-59
2021/12/31 01:55:22;;;;;;;1.48;0.20;;;30.30;39.00;;;;;;5031563;28;20140;-62
2021/12/31 01:57:50;;;;;;;0.68;0.35;;;30.50;38.70;;;;;;5039578;28;20045;-54
2021/12/31 02:00:17;;;;;;;0.40;0.20;;;30.70;38.30;;;;;;5038812;28;20049;-54
2021/12/31 02:02:46;;;;;;;0.40;0.20;;;30.90;38.00;;;;;;5041295;28;20055;-66
2021/12/31 02:05:14;;;;;;;2.92;0.30;;;31.10;37.80;;;;;;5037404;28;20067;-67
2021/12/31 02:07:41;;;;;;;1.10;0.20;;;31.30;37.60;;;;;;5042006;28;20037;-68
2021/12/31 02:10:10;;;;;;;0.20;0.10;;;31.40;37.80;;;;;;5037687;28;20132;-67
2021/12/31 02:12:42;;;;;;;0.73;0.35;;;31.60;37.00;;;;;;5040561;28;20072;-67
2021/12/31 02:15:11;;;;;;;0.90;0.52;;;31.70;36.70;;;;;;5037780;28;20043;-66
2021/12/31 02:17:38;;;;;;;0.50;0.40;;;31.90;36.50;;;;;;5039344;28;20044;-66
2021/12/31 02:20:08;;;;;;;0.80;0.52;;;32.00;36.90;;;;;;5037839;28;20063;-65
2021/12/31 02:22:38;;;;;;;2.28;0.85;;;32.10;36.10;;;;;;5035325;28;20045;-66
2021/12/31 02:25:06;;;;;;;0.20;0.20;;;32.20;36.00;;;;;;5038752;28;20047;-66
2021/12/31 02:27:38;;;;;;;0.60;0.60;;;32.30;36.50;;;;;;5038552;28;20045;-65
2021/12/31 02:30:07;;;;;;;1.13;0.30;;;32.40;35.70;;;;;;5040433;28;20502;-64
2021/12/31 02:32:35;;;;;;;0.55;0.55;;;32.40;35.60;;;;;;5035479;28;20041;-55
2021/12/31 02:35:02;;;;;;;1.17;0.60;;;32.50;35.50;;;;;;5035665;28;20045;-60
2021/12/31 02:37:32;;;;;;;0.57;0.38;;;32.50;35.40;;;;;;5035884;28;20067;-52
2021/12/31 02:39:59;;;;;;;0.88;0.40;;;32.60;35.30;;;;;;5041285;28;20711;-50
2021/12/31 02:42:26;;;;;;;1.90;0.35;;;32.70;35.30;;;;;;5037055;28;20036;-60
2021/12/31 02:44:55;;;;;;;0.60;0.60;;;32.70;35.20;;;;;;5034445;28;20496;-61
2021/12/31 02:47:22;;;;;;;0.70;0.40;;;32.80;35.10;;;;;;5036229;28;20052;-58
2021/12/31 02:49:49;;;;;;;0.63;0.32;;;32.80;35.00;;;;;;5035459;28;20051;-61
2021/12/31 02:52:18;;;;;;;0.30;0.25;;;32.80;34.90;;;;;;5036682;28;20051;-60
2021/12/31 02:54:49;;;;;;;0.82;0.82;;;32.90;34.80;;;;;;5035496;28;20041;-60
2021/12/31 02:57:20;;;;;;;0.93;0.73;;;32.90;34.70;;;;;;5036142;28;20047;-62
2021/12/31 02:59:48;;;;;;;0.50;0.20;;;33.00;34.60;;;;;;5035733;28;20036;-59
2021/12/31 03:02:19;;;;;;;0.75;0.52;;;33.00;34.50;;;;;;5037874;28;20120;-56
2021/12/31 03:04:47;;;;;;;0.65;0.57;;;33.00;34.50;;;;;;5037517;28;20116;-57
2021/12/31 03:07:15;;;;;;;1.13;0.40;;;32.90;34.30;;;;;;5040195;28;20461;-58
2021/12/31 03:09:46;;;;;;;0.40;0.40;;;32.70;34.40;;;;;;5043148;28;20045;-59
2021/12/31 03:12:16;;;;;;;0.90;0.20;;;32.40;34.50;;;;;;5041547;28;20048;-56
2021/12/31 03:14:44;;;;;;;0.93;0.55;;;32.00;34.80;;;;;;5040183;28;20052;-55
2021/12/31 03:17:13;;;;;;;2.33;0.30;;;31.70;35.20;;;;;;5038611;28;20055;-58
2021/12/31 03:19:42;;;;;;;3.33;0.40;;;31.30;35.60;;;;;;5042527;28;20497;-57
2021/12/31 03:22:09;;;;;;;0.43;0.30;;;30.90;36.60;;;;;;5039957;28;20037;-57
2021/12/31 03:24:36;;;;;;;0.63;0.60;;;30.60;36.40;;;;;;5043957;28;20114;-59
2021/12/31 03:27:04;;;;;;;0.63;0.25;;;30.20;36.90;;;;;;5035840;28;20049;-58
2021/12/31 03:29:33;;;;;;;0.77;0.30;;;29.90;37.40;;;;;;5040556;28;20045;-58
2021/12/31 03:32:00;;;;;;;0.63;0.20;;;29.60;37.80;;;;;;5039906;28;20037;-54
2021/12/31 03:34:27;;;;;;;5.82;0.73;;;29.30;38.30;;;;;;5040208;28;20041;-58
2021/12/31 03:36:55;;;;;;;2.90;0.30;;;29.00;38.70;;;;;;5040578;28;20522;-58
2021/12/31 03:39:22;;;;;;;1.40;0.25;;;28.80;39.00;;;;;;5040089;28;20532;-55
2021/12/31 03:41:49;;;;;;;0.50;0.25;;;28.50;39.30;;;;;;5042508;28;20056;-54
2021/12/31 03:44:16;;;;;;;1.70;0.28;;;28.20;39.60;;;;;;5042673;28;20041;-56
2021/12/31 03:46:45;;;;;;;0.40;0.30;;;28.00;40.00;;;;;;5036107;28;20048;-57
2021/12/31 03:49:12;;;;;;;0.28;0.20;;;27.80;40.40;;;;;;5044942;28;20045;-58
2021/12/31 03:51:39;;;;;;;0.20;0.20;;;27.50;40.70;;;;;;5044988;28;20040;-58
2021/12/31 03:54:06;;;;;;;0.60;0.38;;;27.40;41.10;;;;;;5041017;28;20049;-58
2021/12/31 03:56:34;;;;;;;0.85;0.40;;;27.20;41.40;;;;;;5042253;28;20048;-57
2021/12/31 03:59:01;;;;;;;1.05;0.28;;;27.00;41.70;;;;;;5039331;28;20065;-57
2021/12/31 04:01:28;;;;;;;1.77;0.45;;;26.80;41.90;;;;;;5040503;28;20486;-58
2021/12/31 04:03:57;;;;;;;0.93;0.10;;;26.70;42.20;;;;;;5042751;28;20413;-56
2021/12/31 04:06:25;;;;;;;0.47;0.20;;;26.50;42.40;;;;;;5038701;28;20504;-56
2021/12/31 04:08:52;;;;;;;2.47;0.28;;;26.40;42.70;;;;;;5043984;28;20795;-56
2021/12/31 04:11:19;;;;;;;0.30;0.20;;;26.30;43.00;;;;;;5042468;28;20721;-58
2021/12/31 04:13:46;;;;;;;1.30;0.20;;;26.10;43.10;;;;;;5040537;28;20044;-57
2021/12/31 04:16:14;;;;;;;0.75;0.22;;;26.00;43.40;;;;;;5037566;28;20524;-57
2021/12/31 04:18:41;;;;;;;0.77;0.20;;;25.90;43.50;;;;;;5043911;28;20037;-56
2021/12/31 04:21:09;;;;;;;0.55;0.20;;;25.80;43.70;;;;;;5042235;28;20045;-58
2021/12/31 04:23:48;;;;;;;0.30;0.30;;;25.70;43.90;;;;;;5040975;28;20122;-56
2021/12/31 04:26:16;;;;;;;0.63;0.32;;;25.70;44.10;;;;;;5034834;28;20044;-57
2021/12/31 04:28:43;;;;;;;0.40;0.40;;;25.50;44.20;;;;;;5040911;28;20107;-55
2021/12/31 04:31:10;;;;;;;1.42;0.30;;;25.40;44.40;;;;;;5038329;28;20052;-58
2021/12/31 04:33:38;;;;;;;0.52;0.10;;;25.40;44.60;;;;;;5041737;28;20056;-56
2021/12/31 04:36:06;;;;;;;3.97;0.30;;;25.30;44.70;;;;;;5037200;28;20068;-58
2021/12/31 04:38:34;;;;;;;5.22;0.20;;;25.30;45.00;;;;;;5040281;28;20045;-56
2021/12/31 04:41:02;;;;;;;0.40;0.25;;;25.20;45.00;;;;;;5045348;28;20048;-58
2021/12/31 04:43:30;;;;;;;2.72;0.20;;;25.10;45.00;;;;;;5041132;28;20048;-58
2021/12/31 04:45:57;;;;;;;0.20;0.20;;;25.00;45.10;;;;;;5037941;28;20516;-57
2021/12/31 04:48:24;;;;;;;0.70;0.10;;;25.00;45.30;;;;;;5043014;28;20041;-59
2021/12/31 04:50:51;;;;;;;0.25;0.10;;;24.90;45.30;;;;;;5040024;28;20509;-57
2021/12/31 04:53:18;;;;;;;1.25;0.30;;;24.90;45.50;;;;;;5038800;28;20051;-58
2021/12/31 04:55:46;;;;;;;0.30;0.10;;;24.80;45.60;;;;;;5037176;28;23576;-58
2021/12/31 04:58:13;;;;;;;0.20;0.20;;;24.70;45.70;;;;;;5037273;28;20049;-56
2021/12/31 05:00:40;;;;;;;0.20;0.13;;;24.70;45.70;;;;;;5043035;28;20041;-58
2021/12/31 05:03:08;;;;;;;3.92;0.55;;;24.70;45.80;;;;;;5039075;28;20828;-57
2021/12/31 05:05:35;;;;;;;0.40;0.10;;;24.60;45.90;;;;;;5037859;28;20139;-56
2021/12/31 05:08:02;;;;;;;0.47;0.17;;;24.60;45.90;;;;;;5039610;28;20489;-59
2021/12/31 05:10:31;;;;;;;0.20;0.20;;;24.60;46.10;;;;;;5042169;28;20060;-57
2021/12/31 05:13:01;;;;;;;0.30;0.20;;;24.50;46.10;;;;;;5039557;28;20051;-56
2021/12/31 05:15:33;;;;;;;0.20;0.20;;;24.60;46.30;;;;;;5035634;28;20048;-54
2021/12/31 05:18:00;;;;;;;0.20;0.10;;;24.50;46.40;;;;;;5041863;28;20674;-55
2021/12/31 05:20:27;;;;;;;1.73;0.20;;;24.40;46.40;;;;;;5042115;28;20044;-57
2021/12/31 05:22:57;;;;;;;0.32;0.10;;;24.40;46.40;;;;;;5041796;28;20068;-56
2021/12/31 05:25:24;;;;;;;1.75;0.30;;;24.40;46.50;;;;;;5030979;28;20055;-57
2021/12/31 05:27:51;;;;;;;0.70;0.15;;;24.40;46.50;;;;;;5041739;28;20115;-58
2021/12/31 05:30:20;;;;;;;0.10;0.10;;;24.40;46.60;;;;;;5037678;28;20045;-57
2021/12/31 05:32:47;;;;;;;0.45;0.10;;;24.30;46.60;;;;;;5041095;28;20071;-58
2021/12/31 05:35:15;;;;;;;1.58;0.20;;;24.30;46.70;;;;;;5035136;28;20994;-58
2021/12/31 05:37:42;;;;;;;0.52;0.10;;;24.20;46.70;;;;;;5039142;28;20041;-56
2021/12/31 05:40:09;;;;;;;0.35;0.10;;;24.20;46.80;;;;;;5038683;28;20048;-58
2021/12/31 05:42:37;;;;;;;0.20;0.10;;;24.20;46.80;;;;;;5039106;28;20041;-58
2021/12/31 05:45:05;;;;;;;0.20;0.10;;;24.20;47.40;;;;;;5039717;28;20064;-55
2021/12/31 05:47:33;;;;;;;0.95;0.10;;;24.10;46.80;;;;;;5035046;28;20052;-59
2021/12/31 05:50:04;;;;;;;0.20;0.10;;;24.10;46.90;;;;;;5041603;28;20029;-58
2021/12/31 05:52:31;;;;;;;0.73;0.10;;;24.10;47.00;;;;;;5037146;28;20572;-58
2021/12/31 05:54:58;;;;;;;0.10;0.10;;;24.10;47.00;;;;;;5038937;28;20049;-58
2021/12/31 05:57:25;;;;;;;0.20;0.20;;;24.10;47.10;;;;;;5036286;28;20057;-57
2021/12/31 05:59:52;;;;;;;0.30;0.10;;;24.00;47.10;;;;;;5038255;28;20051;-54
2021/12/31 06:02:19;;;;;;;0.10;0.10;;;24.00;47.10;;;;;;5038634;28;20045;-57
2021/12/31 06:04:47;;;;;;;0.10;0.10;;;24.00;47.20;;;;;;5038989;28;20045;-57
2021/12/31 06:07:14;;;;;;;0.50;0.20;;;24.00;47.20;;;;;;5036002;28;20061;-57
2021/12/31 06:09:41;;;;;;;0.50;0.10;;;24.00;47.30;;;;;;5042274;28;20041;-57
2021/12/31 06:12:09;;;;;;;1.75;0.20;;;23.90;47.30;;;;;;5040749;28;20071;-58
2021/12/31 06:14:36;;;;;;;0.10;0.10;;;23.90;47.40;;;;;;5036714;28;20044;-58
2021/12/31 06:17:07;;;;;;;0.20;0.20;;;23.90;47.40;;;;;;5035511;28;20137;-58
2021/12/31 06:19:34;;;;;;;0.28;0.10;;;23.90;47.40;;;;;;5041221;28;20045;-56
2021/12/31 06:22:03;;;;;;;0.20;0.20;;;23.90;47.60;;;;;;5041290;28;20033;-58
2021/12/31 06:24:30;;;;;;;0.30;0.30;;;23.90;47.70;;;;;;5038641;28;20147;-57
2021/12/31 06:26:57;;;;;;;0.10;0.10;;;23.90;47.60;;;;;;5037309;28;20044;-56
2021/12/31 06:29:24;;;;;;;0.70;0.10;;;23.90;47.70;;;;;;5038777;28;20056;-57
2021/12/31 06:31:51;;;;;;;0.30;0.30;;;23.90;47.80;;;;;;5038470;28;20042;-55
2021/12/31 06:34:18;;;;;;;1.75;0.10;;;23.90;47.80;;;;;;5038663;28;20036;-56
2021/12/31 06:36:45;;;;;;;0.82;0.20;;;23.90;47.90;;;;;;5036039;28;20041;-57
2021/12/31 06:39:13;;;;;;;0.10;0.10;;;23.90;47.90;;;;;;5038073;28;20057;-58
2021/12/31 06:41:40;;;;;;;0.98;0.10;;;23.80;47.90;;;;;;5038682;28;20037;-54
2021/12/31 06:44:07;;;;;;;0.85;0.10;;;23.90;47.90;;;;;;5036978;28;20056;-58
2021/12/31 06:46:35;;;;;;;0.17;0.10;;;23.90;47.90;;;;;;5037521;28;20086;-57
2021/12/31 06:49:01;;;;;;;0.52;0.20;;;23.80;47.80;;;;;;5038518;28;20061;-57
2021/12/31 06:51:29;;;;;;;0.10;0.08;;;23.80;47.80;;;;;;5039882;28;20063;-55
2021/12/31 06:53:55;;;;;;;1.20;0.20;;;23.80;47.80;;;;;;5039308;28;20056;-56
2021/12/31 06:56:24;;;;;;;0.88;0.38;;;23.80;47.80;;;;;;5033265;28;20414;-55
2021/12/31 06:58:51;;;;;;;0.63;0.10;;;23.80;47.80;;;;;;5038617;28;20037;-55
2021/12/31 07:01:18;;;;;;;0.20;0.20;;;23.80;47.80;;;;;;5039294;28;20049;-58
2021/12/31 07:03:45;;;;;;;0.32;0.32;;;23.80;47.80;;;;;;5040947;28;20056;-55
2021/12/31 07:06:12;;;;;;;0.40;0.20;;;23.80;47.90;;;;;;5035589;28;20900;-57
2021/12/31 07:08:40;;;;;;;0.65;0.28;;;23.80;47.90;;;;;;5040748;28;20128;-55
2021/12/31 07:11:07;;;;;;;0.73;0.10;;;23.80;47.90;;;;;;5038074;28;20267;-54
2021/12/31 07:13:37;;;;;;;0.10;0.10;;;23.80;47.90;;;;;;5039025;28;20044;-56
2021/12/31 07:16:05;;;;;;;0.40;0.20;;;23.80;47.90;;;;;;5033620;28;20048;-57
2021/12/31 07:18:32;;;;;;;0.13;0.10;;;23.70;47.80;;;;;;5041674;28;20060;-57
2021/12/31 07:20:59;;;;;;;0.75;0.10;;;23.70;47.90;;;;;;5039737;28;20517;-57
2021/12/31 07:23:26;;;;;;;0.63;0.30;;;23.70;48.00;;;;;;5040930;28;20044;-56
2021/12/31 07:25:53;;;;;;;0.38;0.20;;;23.70;48.00;;;;;;5035496;28;20265;-57
2021/12/31 07:28:21;;;;;;;0.80;0.10;;;23.70;48.00;;;;;;5040708;28;20033;-57
2021/12/31 07:30:49;;;;;;;3.45;0.10;;;23.70;48.00;;;;;;5040438;28;20041;-57
2021/12/31 07:33:18;;;;;;;0.30;0.30;;;23.70;48.10;;;;;;5036957;28;20042;-57
2021/12/31 07:35:45;;;;;;;0.30;0.10;;;23.70;48.00;;;;;;5032269;28;20613;-57
2021/12/31 07:38:20;;;;;;;0.20;0.13;;;23.70;48.00;;;;;;5038878;28;20543;-58
2021/12/31 07:40:48;;;;;;;1.38;0.20;;;23.70;48.00;;;;;;5036405;28;20063;-57
2021/12/31 07:43:16;;;;;;;0.10;0.10;;;23.70;48.00;;;;;;5036430;28;32012;-57
2021/12/31 07:45:43;;;;;;;0.43;0.20;;;23.70;48.00;;;;;;5037981;28;20111;-59
2021/12/31 07:48:12;;;;;;;1.25;0.10;;;23.70;47.90;;;;;;5037668;28;20045;-58
2021/12/31 07:50:39;;;;;;;0.20;0.10;;;23.70;47.90;;;;;;5040686;28;20922;-58
2021/12/31 07:53:07;;;;;;;0.30;0.10;;;23.70;47.90;;;;;;5042936;28;20047;-58
2021/12/31 07:55:36;;;;;;;0.30;0.10;;;23.70;47.90;;;;;;5037090;28;20171;-61
2021/12/31 07:58:05;;;;;;;0.90;0.20;;;23.70;47.90;;;;;;5042485;28;20161;-58
2021/12/31 08:00:33;;;;;;;0.30;0.30;;;23.70;47.90;;;;;;5041580;28;20359;-57
2021/12/31 08:03:01;;;;;;;1.38;0.10;;;23.60;47.80;;;;;;5042686;28;20745;-58
2021/12/31 08:05:31;;;;;;;0.10;0.10;;;23.70;47.90;;;;;;5036149;28;20045;-58
2021/12/31 08:08:04;;;;;;;1.00;0.13;;;23.70;47.90;;;;;;5040896;28;20136;-59
2021/12/31 08:10:33;;;;;;;0.52;0.10;;;23.70;47.90;;;;;;5041475;28;20052;-59
2021/12/31 08:13:01;;;;;;;0.38;0.10;;;23.60;47.80;;;;;;5036642;28;20057;-60
2021/12/31 08:15:28;;;;;;;1.10;0.10;;;23.60;47.70;;;;;;5039934;28;20048;-59
2021/12/31 08:17:56;;;;;;;0.47;0.25;;;23.70;47.80;;;;;;5040480;28;20452;-58
2021/12/31 08:20:24;;;;;;;0.38;0.20;;;23.60;47.70;;;;;;5043019;28;20033;-59
2021/12/31 08:22:53;;;;;;;0.95;0.10;;;23.60;47.70;;;;;;5040067;28;20067;-58
2021/12/31 08:25:20;;;;;;;0.57;0.10;;;23.60;47.70;;;;;;5038915;28;20041;-59
2021/12/31 08:27:47;;;;;;;0.30;0.10;;;23.60;47.70;;;;;;5039567;28;20067;-58
2021/12/31 08:30:14;;;;;;;0.10;0.10;;;23.60;47.70;;;;;;5045466;28;20774;-57
2021/12/31 08:32:41;;;;;;;0.57;0.10;;;23.60;47.80;;;;;;5042184;28;20148;-58
2021/12/31 08:35:09;;;;;;;0.75;0.20;;;23.60;47.70;;;;;;5037970;28;20060;-58
2021/12/31 08:37:36;;;;;;;0.10;0.10;;;23.60;47.70;;;;;;5038776;28;20130;-58
2021/12/31 08:40:06;;;;;;;0.30;0.10;;;23.60;47.80;;;;;;5039137;28;20040;-57
2021/12/31 08:42:33;;;;;;;0.50;0.10;;;23.60;47.80;;;;;;5041661;28;20059;-56
2021/12/31 08:45:01;;;;;;;0.20;0.10;;;23.70;47.90;;;;;;5036275;28;20545;-57
2021/12/31 08:47:28;;;;;;;0.38;0.20;;;23.60;47.80;;;;;;5039024;28;20045;-58
2021/12/31 08:49:55;;;;;;;1.65;0.15;;;23.70;47.90;;;;;;5041623;28;20053;-59
2021/12/31 08:52:22;;;;;;;2.28;0.10;;;23.70;47.80;;;;;;5042111;28;20049;-56
2021/12/31 08:54:50;;;;;;;1.05;0.10;;;23.70;47.70;;;;;;5040982;28;20132;-56
2021/12/31 08:57:18;;;;;;;2.25;0.20;;;23.70;47.80;;;;;;5038915;28;20045;-56
2021/12/31 08:59:45;;;;;;;0.93;0.10;;;23.70;48.30;;;;;;5043248;28;20052;-53
2021/12/31 09:02:13;;;;;;;0.43;0.10;;;23.70;47.80;;;;;;5039319;28;20124;-55
2021/12/31 09:04:40;;;;;;;0.57;0.10;;;23.70;47.80;;;;;;5042281;28;20612;-55
2021/12/31 09:07:07;;;;;;;12.90;2.35;;;23.70;47.70;;;;;;5037536;28;20049;-63
2021/12/31 09:09:35;;;;;;;6.80;0.10;;;23.70;47.90;;;;;;5043493;28;20041;-62
2021/12/31 09:12:02;;;;;;;0.40;0.20;;;23.60;48.90;;;;;;5041133;28;20060;-57
2021/12/31 09:14:30;;;;;;;0.20;0.10;;;23.60;48.70;;;;;;5039367;28;20681;-56
2021/12/31 09:16:58;;;;;;;0.20;0.10;;;23.70;48.70;;;;;;5036950;28;20093;-62
2021/12/31 09:19:25;;;;;;;0.38;0.10;;;23.90;48.50;;;;;;5036511;28;20140;-64
2021/12/31 09:21:55;;;;;;;0.82;0.20;;;24.10;48.00;;;;;;5044442;28;20057;-61
2021/12/31 09:24:22;;;;;;;0.10;0.10;;;24.40;47.40;;;;;;5039424;28;20041;-58
2021/12/31 09:26:50;;;;;;;0.20;0.20;;;24.80;46.80;;;;;;5039212;28;20533;-54
2021/12/31 09:29:18;;;;;;;2.13;0.10;;;25.10;46.10;;;;;;5038799;28;20094;-63
2021/12/31 09:31:47;;;;;;;0.45;0.10;;;25.40;45.40;;;;;;5038060;28;20471;-54
2021/12/31 09:34:14;;;;;;;0.20;0.20;;;25.70;44.70;;;;;;5041572;28;20048;-70
2021/12/31 09:36:41;;;;;;;0.30;0.25;;;26.00;44.20;;;;;;5038658;28;20466;-58
2021/12/31 09:39:09;;;;;;;0.52;0.20;;;26.30;43.70;;;;;;5039761;28;20045;-60
2021/12/31 09:41:36;;;;;;;0.30;0.10;;;26.60;43.10;;;;;;5037964;28;20049;-60
2021/12/31 09:44:04;;;;;;;1.27;0.30;;;26.90;42.60;;;;;;5042216;28;20112;-61
2021/12/31 09:46:31;;;;;;;0.20;0.13;;;27.10;42.00;;;;;;5036753;28;20927;-61
2021/12/31 09:48:59;;;;;;;1.90;0.10;;;27.40;41.60;;;;;;5040387;28;20052;-60
2021/12/31 09:51:28;;;;;;;0.60;0.10;;;27.70;41.10;;;;;;5041377;28;20514;-59
2021/12/31 09:53:58;;;;;;;0.50;0.10;;;27.90;40.70;;;;;;5040312;28;20040;-60
2021/12/31 09:56:26;;;;;;;0.30;0.10;;;28.20;40.30;;;;;;5034184;28;20741;-60
2021/12/31 09:58:53;;;;;;;1.17;0.28;;;28.40;40.00;;;;;;5037881;28;20123;-60
2021/12/31 10:01:20;;;;;;;0.28;0.20;;;28.60;39.70;;;;;;5040687;28;20055;-61
2021/12/31 10:03:56;;;;;;;0.20;0.20;;;28.80;39.30;;;;;;5041645;28;20135;-61
2021/12/31 10:06:25;;;;;;;;;;;28.90;39.00;;;;;;5036325;28;20049;-65
2021/12/31 10:08:53;;;;;;;0.80;0.22;;;29.00;38.70;;;;;;5037732;28;20016;-63
2021/12/31 10:11:22;;;;;;;1.50;0.10;;;29.20;38.70;;;;;;5039679;28;20087;-61
2021/12/31 10:13:55;;;;;;;0.65;0.20;;;29.30;38.30;;;;;;5039435;28;20033;-61
2021/12/31 10:16:24;;;;;;;0.50;0.50;;;29.50;38.10;;;;;;5035911;28;20053;-64
2021/12/31 10:19:05;;;;;;;0.10;0.10;;;29.60;37.90;;;;;;5040484;28;20498;-65
2021/12/31 10:21:38;;;;;;;1.20;0.17;;;29.80;37.70;;;;;;5039685;28;20391;-62
2021/12/31 10:24:21;;;;;;;0.30;0.10;;;29.80;37.50;;;;;;5038918;28;20577;-62
2021/12/31 10:26:48;;;;;;;0.98;0.20;;;29.90;37.20;;;;;;5033177;28;20045;-61
2021/12/31 10:29:16;;;;;;;0.75;0.17;;;30.00;37.10;;;;;;5037785;28;20049;-60
2021/12/31 10:31:44;;;;;;;1.15;1.15;;;30.10;37.00;;;;;;5039347;28;20045;-62
2021/12/31 10:34:25;;;;;;;0.65;0.50;;;30.20;36.90;;;;;;5039933;28;20411;-59
2021/12/31 10:36:54;;;;;;;0.43;0.20;;;30.30;36.80;;;;;;5035670;28;20055;-60
2021/12/31 10:39:23;;;;;;;0.30;0.20;;;30.30;36.70;;;;;;5037212;28;20682;-62
2021/12/31 10:42:03;;;;;;;0.47;0.47;;;30.40;36.60;;;;;;5039574;28;20148;-55
2021/12/31 10:44:48;;;;;;;0.57;0.47;;;30.50;36.60;;;;;;5038401;28;20090;-58
2021/12/31 10:47:19;;;;;;;0.20;0.20;;;30.50;36.40;;;;;;5037718;28;20144;-58
2021/12/31 10:50:14;;;;;;;0.73;0.35;;;30.50;36.40;;;;;;5037356;28;20149;-62
2021/12/31 10:52:53;;;;;;;1.23;1.10;;;30.60;36.30;;;;;;5039307;28;20037;-56
2021/12/31 10:55:26;;;;;;;0.20;0.20;;;30.60;36.40;;;;;;5034380;28;20044;-59
2021/12/31 10:57:57;;;;;;;0.60;0.45;;;30.60;36.30;;;;;;5038965;28;20045;-55
2021/12/31 11:00:25;;;;;;;0.30;0.20;;;30.70;36.30;;;;;;5037979;28;20080;-57
2021/12/31 11:02:53;;;;;;;1.20;0.50;;;30.80;36.20;;;;;;5040987;28;20573;-55
2021/12/31 11:05:22;;;;;;;1.27;0.55;;;30.80;36.10;;;;;;5035681;28;20045;-64
2021/12/31 11:07:53;;;;;;;0.90;0.35;;;30.90;36.00;;;;;;5036035;28;20045;-61
2021/12/31 11:10:26;;;;;;;1.33;0.45;;;31.00;35.90;;;;;;5041357;28;20049;-66
2021/12/31 11:12:54;;;;;;;1.40;0.63;;;31.00;35.90;;;;;;5035898;28;20069;-63
2021/12/31 11:15:22;;;;;;;0.55;0.30;;;31.00;35.80;;;;;;5034011;28;20041;-45
2021/12/31 11:17:52;;;;;;;2.97;0.57;;;31.00;35.70;;;;;;5036920;28;20048;-56
2021/12/31 11:20:23;;;;;;;2.30;0.50;;;31.10;35.60;;;;;;5037646;28;20041;-55
2021/12/31 11:22:52;;;;;;;3.85;0.32;;;31.00;35.60;;;;;;5037611;28;20054;-53
2021/12/31 11:25:23;;;;;;;2.13;1.92;;;30.90;35.60;;;;;;5036370;28;20481;-57
2021/12/31 11:27:52;;;;;;;2.67;0.68;;;30.80;35.80;;;;;;5042654;28;20053;-57
2021/12/31 11:30:28;;;;;;;4.30;0.70;;;30.60;36.00;;;;;;5040274;28;20037;-57
2021/12/31 11:32:57;;;;;;;1.08;0.40;;;30.40;36.30;;;;;;5040644;28;20124;-63
2021/12/31 11:35:30;;;;;;;1.02;0.57;;;30.10;36.50;;;;;;5041194;28;20511;-57
2021/12/31 11:37:58;;;;;;;2.20;0.90;;;29.90;37.00;;;;;;5042817;28;20048;-58
2021/12/31 11:40:30;;;;;;;3.92;1.02;;;29.70;37.20;;;;;;5040071;28;20032;-58
2021/12/31 11:43:24;;;;;;;2.95;0.85;;;29.50;37.60;;;;;;5042355;28;20075;-56
2021/12/31 11:46:24;;;;;;;4.78;1.15;;;29.30;37.90;;;;;;5041074;28;20088;-66
2021/12/31 11:48:55;;;;;;;2.92;1.45;;;29.10;38.30;;;;;;5031381;28;20140;-59
2021/12/31 11:51:28;;;;;;;5.15;1.35;;;28.80;38.40;;;;;;5038289;28;20577;-59
2021/12/31 11:54:22;;;;;;;5.85;2.17;;;28.60;38.70;;;;;;5042779;28;20095;-61
2021/12/31 11:57:05;;;;;;;7.35;2.58;;;28.30;39.00;;;;;;5041005;28;20095;-61
2021/12/31 11:59:37;;;;;;;7.75;2.70;;;28.10;39.40;;;;;;5041529;28;20091;-61
2021/12/31 12:02:11;;;;;;;15.75;4.25;;;27.80;39.70;;;;;;5043947;28;20040;-58
2021/12/31 12:04:40;;;;;;;12.23;4.35;;;27.60;40.10;;;;;;5035004;28;20545;-59
2021/12/31 12:07:10;;;;;;;6.93;3.30;;;27.40;40.40;;;;;;5031746;28;20118;-60
2021/12/31 12:10:11;;;;;;;10.45;3.22;;;27.20;40.70;;;;;;5038901;28;20076;-60
2021/12/31 12:12:40;;;;;;;7.18;3.20;;;27.10;40.90;;;;;;5033519;28;20121;-60
2021/12/31 12:15:26;;;;;;;5.13;2.38;;;26.90;41.30;;;;;;5034245;28;20153;-60
2021/12/31 12:17:53;;;;;;;11.35;2.40;;;26.70;41.60;;;;;;5038932;28;20458;-60
2021/12/31 12:20:22;;;;;;;5.40;2.42;;;26.60;42.00;;;;;;5036985;28;20508;-59
2021/12/31 12:22:51;;;;;;;11.40;3.30;;;26.40;42.30;;;;;;5037565;28;20047;-60
2021/12/31 12:25:21;;;;;;;4.93;1.70;;;26.40;42.60;;;;;;5046033;28;20095;-60
2021/12/31 12:27:51;;;;;;;6.20;2.20;;;26.30;42.60;;;;;;5037380;28;20057;-61
2021/12/31 12:30:19;;;;;;;3.53;1.38;;;26.10;42.80;;;;;;5035045;28;20048;-62
2021/12/31 12:33:04;;;;;;;7.15;1.85;;;26.00;43.30;;;;;;5033934;28;20084;-61
2021/12/31 12:35:34;;;;;;;3.30;1.30;;;25.90;43.50;;;;;;5038002;28;20041;-61
2021/12/31 12:38:03;;;;;;;4.07;1.80;;;25.80;43.90;;;;;;5047999;28;20048;-61
2021/12/31 12:40:39;;;;;;;4.15;1.63;;;25.70;44.10;;;;;;5039661;28;20111;-61
2021/12/31 12:43:08;;;;;;;9.05;1.55;;;25.70;44.40;;;;;;5034094;28;20059;-61
2021/12/31 12:45:39;;;;;;;3.70;1.52;;;25.60;44.30;;;;;;5037660;28;20111;-60
2021/12/31 12:48:07;;;;;;;4.25;1.20;;;25.50;44.60;;;;;;5035682;28;20041;-61
2021/12/31 12:50:34;;;;;;;2.00;0.80;;;25.40;44.80;;;;;;5035675;28;20394;-60
2021/12/31 12:53:02;;;;;;;6.07;1.80;;;25.40;44.80;;;;;;5034733;28;20029;-60
2021/12/31 12:55:29;;;;;;;2.40;1.20;;;25.30;45.10;;;;;;5035797;28;20029;-61
2021/12/31 12:58:01;;;;;;;3.70;1.25;;;25.30;45.30;;;;;;5032906;28;20499;-63
2021/12/31 13:00:38;;;;;;;3.88;1.33;;;25.20;45.40;;;;;;5035598;28;20381;-62